createdAt,value
2017-12-14T00:01:28.275Z,7.60
2017-12-14T00:03:55.703Z,7.70
2017-12-14T00:06:23.156Z,7.80
2017-12-14T00:08:50.618Z,7.90
2017-12-14T00:11:18.102Z,7.80
2017-12-14T00:13:45.558Z,7.90
2017-12-14T00:16:13.017Z,8.10
2017-12-14T00:18:40.487Z,8.20
2017-12-14T00:21:08.018Z,8.00
2017-12-14T00:23:35.502Z,8.30
2017-12-14T00:26:02.959Z,8.20
2017-12-14T00:28:30.417Z,8.40
2017-12-14T00:30:57.861Z,8.30
2017-12-14T00:33:25.306Z,8.50
2017-12-14T00:35:52.764Z,8.40
2017-12-14T00:38:20.242Z,8.20
2017-12-14T00:40:47.695Z,8.40
2017-12-14T00:43:15.163Z,8.30
2017-12-14T00:45:42.608Z,7.90
2017-12-14T00:48:10.061Z,8.10
2017-12-14T00:50:37.522Z,8.30
2017-12-14T00:53:04.985Z,8.20
2017-12-14T00:55:32.447Z,8.40
2017-12-14T00:57:59.902Z,8.50
2017-12-14T01:00:27.365Z,8.70
2017-12-14T01:02:54.821Z,8.50
2017-12-14T01:05:22.277Z,8.10
2017-12-14T01:07:49.724Z,8.10
2017-12-14T01:10:17.189Z,8.10
2017-12-14T01:12:44.661Z,7.70
2017-12-14T01:15:12.122Z,8.20
2017-12-14T01:17:39.580Z,8.40
2017-12-14T01:20:07.034Z,8.40
2017-12-14T01:22:34.494Z,8.80
2017-12-14T01:25:01.941Z,8.00
2017-12-14T01:27:29.408Z,8.40
2017-12-14T01:29:56.874Z,8.20
2017-12-14T01:32:24.337Z,8.50
2017-12-14T01:34:51.793Z,8.50
2017-12-14T01:37:19.270Z,7.80
2017-12-14T01:39:47.474Z,8.30
2017-12-14T01:42:14.909Z,8.30
2017-12-14T01:44:43.147Z,8.00
2017-12-14T01:47:10.605Z,8.00
2017-12-14T01:49:38.057Z,8.20
2017-12-14T01:52:05.523Z,8.40
2017-12-14T01:54:32.993Z,8.40
2017-12-14T01:57:00.466Z,8.20
2017-12-14T01:59:29.607Z,8.40
2017-12-14T02:01:57.095Z,8.40
2017-12-14T02:04:24.508Z,8.20
2017-12-14T02:06:51.945Z,8.30
2017-12-14T02:09:20.132Z,8.40
2017-12-14T02:11:47.572Z,8.40
2017-12-14T02:14:15.833Z,7.80
2017-12-14T02:16:43.325Z,7.80
2017-12-14T02:19:11.510Z,8.40
2017-12-14T02:21:38.950Z,8.40
2017-12-14T02:24:06.396Z,8.50
2017-12-14T02:26:34.609Z,8.70
2017-12-14T02:29:02.054Z,8.70
2017-12-14T02:31:29.494Z,8.30
2017-12-14T02:33:56.960Z,8.30
2017-12-14T02:36:25.258Z,8.60
2017-12-14T02:38:52.714Z,8.70
2017-12-14T02:41:20.339Z,8.60
2017-12-14T02:43:48.736Z,9.10
2017-12-14T02:46:16.194Z,9.10
2017-12-14T02:48:43.657Z,8.90
2017-12-14T02:51:11.113Z,9.00
2017-12-14T02:53:39.400Z,8.50
2017-12-14T02:56:06.846Z,8.70
2017-12-14T02:58:34.302Z,8.90
2017-12-14T03:01:01.793Z,8.80
2017-12-14T03:03:29.250Z,8.80
2017-12-14T03:05:56.717Z,8.70
2017-12-14T03:08:24.173Z,8.70
2017-12-14T03:10:51.597Z,8.60
2017-12-14T03:13:19.044Z,8.70
2017-12-14T03:15:47.354Z,9.00
2017-12-14T03:18:14.821Z,9.20
2017-12-14T03:20:42.227Z,9.50
2017-12-14T03:23:10.446Z,9.30
2017-12-14T03:25:37.897Z,9.30
2017-12-14T03:28:05.359Z,9.20
2017-12-14T03:30:32.823Z,9.30
2017-12-14T03:33:00.293Z,8.80
2017-12-14T03:35:27.732Z,8.70
2017-12-14T03:37:55.197Z,8.30
2017-12-14T03:40:22.655Z,7.90
2017-12-14T03:42:50.125Z,8.00
2017-12-14T03:45:17.597Z,7.60
2017-12-14T03:47:45.041Z,7.60
2017-12-14T03:50:12.493Z,7.80
2017-12-14T03:52:39.980Z,7.80
2017-12-14T03:55:07.412Z,7.80
2017-12-14T03:57:34.868Z,7.80
2017-12-14T04:00:02.338Z,7.20
2017-12-14T04:02:29.789Z,7.20
2017-12-14T04:04:57.250Z,6.50
2017-12-14T04:07:24.740Z,6.30
2017-12-14T04:09:53.023Z,6.30
2017-12-14T04:12:21.288Z,6.80
2017-12-14T04:14:48.728Z,6.80
2017-12-14T04:17:16.180Z,6.90
2017-12-14T04:19:43.664Z,6.80
2017-12-14T04:22:11.897Z,6.10
2017-12-14T04:24:39.349Z,6.10
2017-12-14T04:27:06.809Z,6.00
2017-12-14T04:29:34.273Z,5.80
2017-12-14T04:32:01.750Z,6.20
2017-12-14T04:34:29.267Z,6.50
2017-12-14T04:36:57.713Z,6.50
2017-12-14T04:39:25.950Z,5.50
2017-12-14T04:41:53.408Z,5.50
2017-12-14T04:44:20.865Z,5.60
2017-12-14T04:46:49.093Z,5.70
2017-12-14T04:49:17.288Z,6.00
2017-12-14T04:51:44.733Z,6.00
2017-12-14T04:54:12.199Z,6.10
2017-12-14T04:56:39.648Z,5.80
2017-12-14T04:59:07.119Z,6.00
2017-12-14T05:01:34.569Z,5.50
2017-12-14T05:04:02.013Z,5.50
2017-12-14T05:06:29.452Z,5.70
2017-12-14T05:08:57.665Z,5.30
2017-12-14T05:11:25.117Z,5.30
2017-12-14T05:13:52.579Z,5.40
2017-12-14T05:16:20.026Z,5.70
2017-12-14T05:18:47.495Z,5.80
2017-12-14T05:21:17.680Z,5.90
2017-12-14T05:23:45.876Z,5.50
2017-12-14T05:26:14.141Z,5.50
2017-12-14T05:28:42.357Z,5.50
2017-12-14T05:31:09.813Z,5.50
2017-12-14T05:33:37.278Z,5.60
2017-12-14T05:36:04.741Z,5.70
2017-12-14T05:38:32.172Z,6.00
2017-12-14T05:40:59.632Z,6.10
2017-12-14T05:43:27.089Z,6.00
2017-12-14T05:45:54.638Z,6.10
2017-12-14T05:48:22.093Z,6.00
2017-12-14T05:50:49.558Z,6.00
2017-12-14T05:53:17.019Z,6.10
2017-12-14T05:55:44.481Z,6.10
2017-12-14T05:58:11.955Z,5.70
2017-12-14T06:00:39.421Z,5.80
2017-12-14T06:03:06.882Z,5.40
2017-12-14T06:05:34.321Z,5.50
2017-12-14T06:08:02.729Z,5.50
2017-12-14T06:10:30.177Z,5.60
2017-12-14T06:12:57.644Z,5.30
2017-12-14T06:15:25.877Z,5.40
2017-12-14T06:17:53.371Z,5.40
2017-12-14T06:20:20.815Z,5.70
2017-12-14T06:22:48.285Z,5.70
2017-12-14T06:25:15.753Z,5.20
2017-12-14T06:27:43.206Z,5.80
2017-12-14T06:30:10.657Z,5.60
2017-12-14T06:32:38.093Z,5.40
2017-12-14T06:35:05.556Z,5.40
2017-12-14T06:37:33.037Z,5.70
2017-12-14T06:40:00.489Z,5.50
2017-12-14T06:42:27.941Z,5.40
2017-12-14T06:44:55.409Z,5.70
2017-12-14T06:47:22.872Z,5.80
2017-12-14T06:49:50.328Z,5.60
2017-12-14T06:52:17.788Z,5.50
2017-12-14T06:54:45.250Z,5.30
2017-12-14T06:57:12.673Z,5.40
2017-12-14T06:59:40.877Z,5.70
2017-12-14T07:02:08.316Z,5.70
2017-12-14T07:04:35.789Z,6.00
2017-12-14T07:07:03.283Z,5.60
2017-12-14T07:09:31.521Z,5.70
2017-12-14T07:11:58.964Z,5.70
2017-12-14T07:14:26.433Z,5.90
2017-12-14T07:16:53.898Z,5.70
2017-12-14T07:19:21.348Z,5.90
2017-12-14T07:21:48.811Z,6.20
2017-12-14T07:24:16.277Z,6.70
2017-12-14T07:26:43.728Z,5.70
2017-12-14T07:29:11.191Z,6.00
2017-12-14T07:31:38.608Z,6.10
2017-12-14T07:34:06.045Z,6.10
2017-12-14T07:36:33.515Z,6.30
2017-12-14T07:39:00.977Z,6.00
2017-12-14T07:41:29.333Z,5.60
2017-12-14T07:44:08.581Z,5.30
2017-12-14T07:46:36.036Z,5.80
2017-12-14T07:49:15.277Z,5.80
2017-12-14T07:51:43.512Z,6.30
2017-12-14T07:54:10.986Z,6.30
2017-12-14T07:56:39.253Z,6.20
2017-12-14T07:59:06.708Z,6.20
2017-12-14T08:01:34.175Z,5.90
2017-12-14T08:04:02.431Z,5.90
2017-12-14T08:06:30.658Z,6.00
2017-12-14T08:08:58.175Z,6.00
2017-12-14T08:11:25.608Z,6.30
2017-12-14T08:13:53.075Z,6.20
2017-12-14T08:16:20.510Z,6.20
2017-12-14T08:18:47.947Z,6.20
2017-12-14T08:21:15.424Z,6.50
2017-12-14T08:23:42.877Z,6.50
2017-12-14T08:26:10.329Z,6.40
2017-12-14T08:28:37.801Z,6.20
2017-12-14T08:31:05.245Z,5.90
2017-12-14T08:33:32.722Z,6.30
2017-12-14T08:36:00.180Z,6.60
2017-12-14T08:38:27.644Z,6.60
2017-12-14T08:40:55.101Z,7.00
2017-12-14T08:43:22.524Z,6.80
2017-12-14T08:45:50.004Z,7.20
2017-12-14T08:48:17.491Z,6.90
2017-12-14T08:50:44.945Z,6.60
2017-12-14T08:53:12.398Z,6.60
2017-12-14T08:55:39.857Z,6.60
2017-12-14T08:58:07.369Z,6.70
2017-12-14T09:00:34.781Z,7.20
2017-12-14T09:03:02.246Z,7.40
2017-12-14T09:05:30.482Z,7.70
2017-12-14T09:07:57.981Z,7.60
2017-12-14T09:10:25.733Z,7.20
2017-12-14T09:12:53.193Z,8.00
2017-12-14T09:15:21.391Z,8.20
2017-12-14T09:17:49.609Z,7.90
2017-12-14T09:20:17.080Z,7.80
2017-12-14T09:22:44.548Z,7.70
2017-12-14T09:25:12.037Z,7.50
2017-12-14T09:27:39.483Z,7.70
2017-12-14T09:30:07.722Z,7.40
2017-12-14T09:32:35.182Z,7.40
2017-12-14T09:35:02.673Z,7.50
2017-12-14T09:37:30.125Z,7.40
2017-12-14T09:39:57.611Z,7.90
2017-12-14T09:42:25.053Z,8.30
2017-12-14T09:44:52.496Z,8.00
2017-12-14T09:47:19.953Z,7.80
2017-12-14T09:49:47.401Z,7.90
2017-12-14T09:52:14.844Z,7.80
2017-12-14T09:54:42.444Z,8.20
2017-12-14T09:57:10.761Z,7.80
2017-12-14T09:59:38.193Z,7.80
2017-12-14T10:02:06.435Z,7.80
2017-12-14T10:04:33.825Z,7.80
2017-12-14T10:07:02.063Z,7.70
2017-12-14T10:09:29.982Z,7.70
2017-12-14T10:11:57.442Z,7.80
2017-12-14T10:14:24.896Z,7.90
2017-12-14T10:16:53.097Z,7.80
2017-12-14T10:19:20.547Z,7.80
2017-12-14T10:21:48.120Z,7.60
2017-12-14T10:24:15.533Z,7.70
2017-12-14T10:26:43.018Z,7.60
2017-12-14T10:29:10.444Z,8.10
2017-12-14T10:31:38.702Z,6.90
2017-12-14T10:34:06.916Z,7.50
2017-12-14T10:36:34.366Z,7.50
2017-12-14T10:39:01.818Z,8.30
2017-12-14T10:41:30.072Z,8.40
2017-12-14T10:43:58.286Z,9.10
2017-12-14T10:46:25.738Z,9.00
2017-12-14T10:48:53.190Z,8.60
2017-12-14T10:51:20.647Z,8.70
2017-12-14T10:53:48.105Z,8.50
2017-12-14T10:56:15.588Z,8.60
2017-12-14T10:58:43.038Z,8.50
2017-12-14T11:01:16.241Z,8.40
2017-12-14T11:03:43.689Z,8.40
2017-12-14T11:06:11.153Z,8.10
2017-12-14T11:08:38.611Z,8.10
2017-12-14T11:11:06.071Z,7.60
2017-12-14T11:13:33.525Z,7.60
2017-12-14T11:16:00.985Z,7.70
2017-12-14T11:18:28.438Z,7.90
2017-12-14T11:20:55.895Z,7.90
2017-12-14T11:23:23.367Z,8.00
2017-12-14T11:25:50.822Z,8.20
2017-12-14T11:28:18.300Z,7.60
2017-12-14T11:30:45.736Z,7.70
2017-12-14T11:33:13.268Z,7.90
2017-12-14T11:35:40.742Z,8.00
2017-12-14T11:38:08.186Z,8.60
2017-12-14T11:40:35.669Z,8.70
2017-12-14T11:43:03.132Z,8.50
2017-12-14T11:45:30.589Z,9.00
2017-12-14T11:47:58.062Z,8.30
2017-12-14T11:50:25.521Z,8.50
2017-12-14T11:52:52.972Z,8.70
2017-12-14T11:55:20.455Z,7.80
2017-12-14T11:57:47.919Z,7.70
2017-12-14T12:00:24.977Z,7.60
2017-12-14T12:02:52.436Z,7.60
2017-12-14T12:05:20.693Z,8.10
2017-12-14T12:07:48.182Z,8.00
2017-12-14T12:10:15.646Z,8.00
2017-12-14T12:12:43.081Z,7.90
2017-12-14T12:15:10.537Z,8.10
2017-12-14T12:17:37.985Z,8.50
2017-12-14T12:20:05.461Z,7.60
2017-12-14T12:22:34.447Z,7.70
2017-12-14T12:25:02.646Z,8.20
2017-12-14T12:27:31.093Z,8.10
2017-12-14T12:29:58.513Z,8.10
2017-12-14T12:32:25.971Z,8.20
2017-12-14T12:34:53.424Z,7.70
2017-12-14T12:37:21.654Z,7.90
2017-12-14T12:39:49.122Z,7.90
2017-12-14T12:42:16.589Z,7.80
2017-12-14T12:44:44.030Z,7.70
2017-12-14T12:47:11.504Z,8.10
2017-12-14T12:49:38.999Z,8.10
2017-12-14T12:52:06.453Z,7.40
2017-12-14T12:54:34.629Z,7.50
2017-12-14T12:57:02.089Z,7.50
2017-12-14T12:59:30.459Z,7.70
2017-12-14T13:01:58.656Z,7.60
2017-12-14T13:04:26.088Z,7.60
2017-12-14T13:06:53.541Z,7.80
2017-12-14T13:09:21.751Z,7.10
2017-12-14T13:11:49.209Z,7.10
2017-12-14T13:14:16.664Z,6.80
2017-12-14T13:16:44.098Z,7.80
2017-12-14T13:19:11.586Z,8.20
2017-12-14T13:21:39.031Z,8.40
2017-12-14T13:24:06.513Z,8.60
2017-12-14T13:26:33.957Z,8.80
2017-12-14T13:29:01.425Z,7.90
2017-12-14T13:31:28.880Z,7.80
2017-12-14T13:33:56.329Z,7.90
2017-12-14T13:36:23.794Z,8.00
2017-12-14T13:38:51.241Z,7.80
2017-12-14T13:41:18.713Z,7.90
2017-12-14T13:43:46.154Z,8.00
2017-12-14T13:46:13.641Z,8.00
2017-12-14T13:48:41.078Z,7.90
2017-12-14T13:51:08.548Z,8.00
2017-12-14T13:53:36.020Z,8.00
2017-12-14T13:56:03.467Z,8.30
2017-12-14T13:58:30.913Z,8.40
2017-12-14T14:00:58.374Z,8.30
2017-12-14T14:03:25.830Z,8.10
2017-12-14T14:05:53.313Z,7.90
2017-12-14T14:08:21.779Z,7.90
2017-12-14T14:10:49.235Z,8.10
2017-12-14T14:15:50.625Z,8.50
2017-12-14T14:18:18.056Z,8.40
2017-12-14T14:20:45.512Z,7.50
2017-12-14T14:23:13.015Z,8.00
2017-12-14T14:25:40.441Z,8.10
2017-12-14T14:28:07.917Z,7.60
2017-12-14T14:30:35.381Z,7.70
2017-12-14T14:33:02.818Z,7.70
2017-12-14T14:35:30.575Z,7.90
2017-12-14T14:37:58.033Z,8.00
2017-12-14T14:40:26.245Z,7.60
2017-12-14T14:42:53.975Z,7.60
2017-12-14T14:45:21.660Z,8.20
2017-12-14T14:47:49.222Z,7.70
2017-12-14T14:50:17.316Z,7.50
2017-12-14T14:52:46.854Z,7.90
2017-12-14T14:55:15.446Z,8.20
2017-12-14T14:57:45.090Z,8.10
2017-12-14T15:00:15.086Z,8.00
2017-12-14T15:02:42.573Z,7.60
2017-12-14T15:05:11.687Z,7.50
2017-12-14T15:07:40.053Z,7.80
2017-12-14T15:10:08.668Z,7.80
2017-12-14T15:12:36.104Z,7.30
2017-12-14T15:15:04.300Z,7.40
2017-12-14T15:17:31.759Z,7.40
2017-12-14T15:19:59.182Z,7.10
2017-12-14T15:22:27.382Z,7.30
2017-12-14T15:24:54.813Z,7.40
2017-12-14T15:27:23.077Z,6.90
2017-12-14T15:29:50.530Z,6.90
2017-12-14T15:32:17.981Z,6.90
2017-12-14T15:34:45.448Z,7.20
2017-12-14T15:37:12.972Z,7.30
2017-12-14T15:39:40.519Z,7.20
2017-12-14T15:42:07.943Z,7.40
2017-12-14T15:44:36.133Z,7.60
2017-12-14T15:47:03.590Z,7.60
2017-12-14T15:49:31.043Z,7.40
2017-12-14T15:51:59.245Z,7.30
2017-12-14T15:54:26.683Z,7.30
2017-12-14T15:56:54.135Z,7.30
2017-12-14T15:59:21.596Z,6.80
2017-12-14T16:01:49.052Z,7.20
2017-12-14T16:04:16.597Z,7.50
2017-12-14T16:06:44.828Z,7.40
2017-12-14T16:09:12.277Z,7.40
2017-12-14T16:11:39.713Z,6.90
2017-12-14T16:14:07.208Z,7.00
2017-12-14T16:16:34.653Z,7.10
2017-12-14T16:19:02.080Z,6.70
2017-12-14T16:21:29.557Z,7.20
2017-12-14T16:23:57.029Z,7.40
2017-12-14T16:26:24.473Z,7.20
2017-12-14T16:28:51.917Z,7.80
2017-12-14T16:31:19.380Z,7.80
2017-12-14T16:33:46.841Z,7.80
2017-12-14T16:36:14.280Z,7.30
2017-12-14T16:38:43.499Z,7.50
2017-12-14T16:41:10.957Z,7.50
2017-12-14T16:43:39.169Z,7.30
2017-12-14T16:46:06.621Z,7.50
2017-12-14T16:48:34.057Z,7.70
2017-12-14T16:51:01.570Z,7.50
2017-12-14T16:53:29.797Z,7.50
2017-12-14T16:55:57.274Z,7.50
2017-12-14T16:58:24.728Z,7.30
2017-12-14T17:00:52.174Z,7.70
2017-12-14T17:03:19.637Z,7.60
2017-12-14T17:05:47.834Z,7.50
2017-12-14T17:08:15.284Z,7.50
2017-12-14T17:10:42.745Z,7.30
2017-12-14T17:13:10.214Z,6.80
2017-12-14T17:15:37.646Z,6.90
2017-12-14T17:18:05.865Z,6.90
2017-12-14T17:20:34.114Z,6.90
2017-12-14T17:23:01.588Z,6.90
2017-12-14T17:25:29.024Z,7.40
2017-12-14T17:27:56.497Z,7.80
2017-12-14T17:30:23.942Z,7.70
2017-12-14T17:32:51.398Z,7.70
2017-12-14T17:35:18.877Z,7.40
2017-12-14T17:37:46.321Z,7.30
2017-12-14T17:40:13.744Z,7.40
2017-12-14T17:42:41.203Z,7.40
2017-12-14T17:45:08.663Z,7.70
2017-12-14T17:47:36.083Z,7.90
2017-12-14T17:50:03.531Z,7.90
2017-12-14T17:52:31.100Z,7.50
2017-12-14T17:54:59.318Z,7.50
2017-12-14T17:57:26.736Z,7.50
2017-12-14T17:59:54.187Z,7.50
2017-12-14T18:02:21.643Z,7.40
2017-12-14T18:04:49.824Z,7.40
2017-12-14T18:07:17.280Z,7.40
2017-12-14T18:09:45.477Z,7.90
2017-12-14T18:12:12.900Z,7.90
2017-12-14T18:14:41.104Z,7.80
2017-12-14T18:17:08.538Z,7.80
2017-12-14T18:19:36.748Z,7.90
2017-12-14T18:22:04.189Z,7.90
2017-12-14T18:24:31.624Z,7.80
2017-12-14T18:26:59.827Z,8.00
2017-12-14T18:29:27.264Z,8.00
2017-12-14T18:31:54.712Z,8.00
2017-12-14T18:34:23.757Z,8.00
2017-12-14T18:36:51.191Z,8.00
2017-12-14T18:39:18.632Z,8.20
2017-12-14T18:41:46.113Z,8.20
2017-12-14T18:44:13.570Z,8.30
2017-12-14T18:46:41.013Z,8.30
2017-12-14T18:49:08.468Z,8.10
2017-12-14T18:51:35.925Z,8.10
2017-12-14T18:54:03.403Z,8.30
2017-12-14T18:56:31.176Z,8.20
2017-12-14T18:58:58.638Z,8.00
2017-12-14T19:01:26.085Z,7.50
2017-12-14T19:03:53.536Z,7.60
2017-12-14T19:06:20.962Z,7.50
2017-12-14T19:08:49.488Z,7.80
2017-12-14T19:11:16.952Z,7.80
2017-12-14T19:13:44.384Z,7.90
2017-12-14T19:16:11.822Z,7.80
2017-12-14T19:18:40.023Z,7.30
2017-12-14T19:21:08.409Z,7.20
2017-12-14T19:23:36.613Z,7.70
2017-12-14T19:26:04.050Z,8.00
2017-12-14T19:28:31.521Z,8.10
2017-12-14T19:30:58.974Z,8.10
2017-12-14T19:33:27.352Z,8.20
2017-12-14T19:35:54.829Z,8.40
2017-12-14T19:38:22.268Z,8.30
2017-12-14T19:40:49.719Z,8.40
2017-12-14T19:43:17.172Z,8.70
2017-12-14T19:45:44.590Z,8.20
2017-12-14T19:48:12.813Z,8.10
2017-12-14T19:50:40.257Z,8.10
2017-12-14T19:53:07.733Z,8.20
2017-12-14T19:55:35.268Z,7.80
2017-12-14T19:58:02.711Z,8.00
2017-12-14T20:00:30.139Z,8.30
2017-12-14T20:02:58.377Z,8.40
2017-12-14T20:05:25.821Z,8.30
2017-12-14T20:07:53.243Z,8.70
2017-12-14T20:10:21.015Z,8.40
2017-12-14T20:12:48.545Z,8.20
2017-12-14T20:15:16.012Z,8.40
2017-12-14T20:17:43.446Z,8.60
2017-12-14T20:20:10.965Z,8.50
2017-12-14T20:22:38.385Z,8.60
2017-12-14T20:25:06.581Z,8.40
2017-12-14T20:27:34.029Z,8.40
2017-12-14T20:30:02.253Z,8.80
2017-12-14T20:32:29.741Z,8.70
2017-12-14T20:34:57.218Z,8.80
2017-12-14T20:37:25.413Z,8.30
2017-12-14T20:39:52.861Z,8.30
2017-12-14T20:42:20.320Z,8.30
2017-12-14T20:44:48.500Z,8.60
2017-12-14T20:47:15.937Z,8.60
2017-12-14T20:49:44.134Z,8.80
2017-12-14T20:52:11.576Z,8.70
2017-12-14T20:54:40.786Z,8.80
2017-12-14T20:57:08.233Z,8.80
2017-12-14T20:59:36.443Z,8.40
2017-12-14T21:02:03.890Z,8.40
2017-12-14T21:04:31.554Z,8.70
2017-12-14T21:06:59.004Z,8.60
2017-12-14T21:09:26.481Z,8.50
2017-12-14T21:11:53.910Z,8.50
2017-12-14T21:14:21.369Z,8.20
2017-12-14T21:16:48.950Z,7.80
2017-12-14T21:19:16.398Z,7.90
2017-12-14T21:21:43.866Z,8.10
2017-12-14T21:24:11.305Z,8.00
2017-12-14T21:26:38.781Z,7.80
2017-12-14T21:29:06.231Z,7.70
2017-12-14T21:31:33.680Z,7.90
2017-12-14T21:34:01.142Z,8.20
2017-12-14T21:36:28.613Z,8.30
2017-12-14T21:38:56.056Z,8.40
2017-12-14T21:41:23.524Z,8.50
2017-12-14T21:43:50.999Z,8.70
2017-12-14T21:46:18.453Z,8.30
2017-12-14T21:48:45.940Z,8.30
2017-12-14T21:51:13.381Z,8.10
2017-12-14T21:53:40.824Z,7.50
2017-12-14T21:56:08.283Z,7.40
2017-12-14T21:58:35.732Z,7.20
2017-12-14T22:01:03.187Z,7.60
2017-12-14T22:03:31.562Z,7.90
2017-12-14T22:05:59.026Z,8.00
2017-12-14T22:08:26.509Z,8.00
2017-12-14T22:10:53.963Z,7.90
2017-12-14T22:13:21.434Z,8.00
2017-12-14T22:15:48.868Z,7.50
2017-12-14T22:18:16.353Z,7.80
2017-12-14T22:20:43.781Z,7.30
2017-12-14T22:23:11.236Z,7.40
2017-12-14T22:25:38.741Z,7.30
2017-12-14T22:28:06.189Z,7.50
2017-12-14T22:30:33.626Z,7.30
2017-12-14T22:33:01.085Z,6.90
2017-12-14T22:35:28.545Z,7.20
2017-12-14T22:37:56.021Z,7.30
2017-12-14T22:40:23.485Z,7.60
2017-12-14T22:42:50.936Z,8.00
2017-12-14T22:45:18.405Z,8.30
2017-12-14T22:47:45.879Z,8.50
2017-12-14T22:50:13.369Z,8.50
2017-12-14T22:52:40.781Z,8.40
2017-12-14T22:55:08.236Z,8.30
2017-12-14T22:57:35.700Z,8.10
2017-12-14T23:00:03.096Z,8.30
2017-12-14T23:02:31.442Z,8.20
2017-12-14T23:04:59.701Z,7.90
2017-12-14T23:07:27.148Z,7.90
2017-12-14T23:09:54.682Z,7.70
2017-12-14T23:12:22.141Z,7.80
2017-12-14T23:14:49.610Z,8.00
2017-12-14T23:17:17.073Z,7.90
2017-12-14T23:19:44.568Z,7.90
2017-12-14T23:22:12.753Z,7.50
2017-12-14T23:24:40.184Z,7.50
2017-12-14T23:27:08.393Z,7.50
2017-12-14T23:29:35.821Z,7.50
2017-12-14T23:32:04.803Z,7.80
2017-12-14T23:34:32.301Z,7.80
2017-12-14T23:36:59.770Z,7.30
2017-12-14T23:39:27.223Z,7.40
2017-12-14T23:41:54.685Z,7.60
2017-12-14T23:44:22.125Z,7.80
2017-12-14T23:46:49.586Z,7.90
2017-12-14T23:49:17.052Z,7.90
2017-12-14T23:51:44.496Z,7.50
2017-12-14T23:54:11.923Z,7.30
2017-12-14T23:56:39.383Z,7.50
2017-12-14T23:59:06.812Z,7.40
